sensor_id;sensor_type;location;lat;lon;timestamp;pressure;altitude;pressure_sealevel;temperature;humidity
36932;BME280;22847;42.654;23.370;2023-02-02T00:01:20;94689.81;;;7.33;44.23
36932;BME280;22847;42.654;23.370;2023-02-02T00:03:46;94489.66;;;6.24;43.57
36932;BME280;22847;42.654;23.370;2023-02-02T00:06:18;94566.81;;;6.73;43.36
36932;BME280;22847;42.654;23.370;2023-02-02T00:08:43;94741.63;;;7.76;43.29
36932;BME280;22847;42.654;23.370;2023-02-02T00:11:09;94777.78;;;7.56;43.61
36932;BME280;22847;42.654;23.370;2023-02-02T00:13:34;94744.38;;;7.42;43.86
36932;BME280;22847;42.654;23.370;2023-02-02T00:16:21;94731.88;;;7.68;44.15
36932;BME280;22847;42.654;23.370;2023-02-02T00:19:12;94574.56;;;6.84;43.99
36932;BME280;22847;42.654;23.370;2023-02-02T00:21:38;94489.19;;;6.19;43.90
36932;BME280;22847;42.654;23.370;2023-02-02T00:24:05;94745.84;;;7.56;43.80
36932;BME280;22847;42.654;23.370;2023-02-02T00:26:31;94734.41;;;7.79;43.23
36932;BME280;22847;42.654;23.370;2023-02-02T00:28:57;94759.34;;;7.71;43.51
36932;BME280;22847;42.654;23.370;2023-02-02T00:31:22;94714.84;;;7.54;44.13
36932;BME280;22847;42.654;23.370;2023-02-02T00:33:49;94682.16;;;7.31;44.23
36932;BME280;22847;42.654;23.370;2023-02-02T00:36:15;94811.94;;;7.73;44.27
36932;BME280;22847;42.654;23.370;2023-02-02T00:38:41;94679.75;;;7.39;44.26
36932;BME280;22847;42.654;23.370;2023-02-02T00:41:06;94696.31;;;7.59;43.85
36932;BME280;22847;42.654;23.370;2023-02-02T00:43:32;94718.06;;;7.68;44.04
36932;BME280;22847;42.654;23.370;2023-02-02T00:45:57;94740.34;;;7.70;43.81
36932;BME280;22847;42.654;23.370;2023-02-02T00:48:23;94762.91;;;7.90;44.25
36932;BME280;22847;42.654;23.370;2023-02-02T00:50:50;94753.19;;;7.72;44.33
36932;BME280;22847;42.654;23.370;2023-02-02T00:53:16;94752.06;;;7.65;44.04
36932;BME280;22847;42.654;23.370;2023-02-02T00:55:41;94711.72;;;7.40;44.30
36932;BME280;22847;42.654;23.370;2023-02-02T00:58:06;94776.53;;;7.51;45.58
36932;BME280;22847;42.654;23.370;2023-02-02T01:00:32;94772.19;;;7.51;46.34
36932;BME280;22847;42.654;23.370;2023-02-02T01:02:57;94734.97;;;7.30;46.88
36932;BME280;22847;42.654;23.370;2023-02-02T01:05:29;94724.22;;;7.03;47.02
36932;BME280;22847;42.654;23.370;2023-02-02T01:07:54;94774.78;;;7.40;46.97
36932;BME280;22847;42.654;23.370;2023-02-02T01:10:20;94541.28;;;6.37;46.63
36932;BME280;22847;42.654;23.370;2023-02-02T01:12:45;94494.69;;;5.94;47.10
36932;BME280;22847;42.654;23.370;2023-02-02T01:15:11;94724.81;;;7.38;47.46
36932;BME280;22847;42.654;23.370;2023-02-02T01:17:37;94653.78;;;6.98;47.71
36932;BME280;22847;42.654;23.370;2023-02-02T01:20:03;94686.59;;;7.20;48.16
36932;BME280;22847;42.654;23.370;2023-02-02T01:22:28;94717.03;;;7.38;48.43
36932;BME280;22847;42.654;23.370;2023-02-02T01:24:54;94580.50;;;6.64;48.32
36932;BME280;22847;42.654;23.370;2023-02-02T01:27:19;94547.91;;;6.30;48.94
36932;BME280;22847;42.654;23.370;2023-02-02T01:29:44;94737.06;;;7.36;49.07
36932;BME280;22847;42.654;23.370;2023-02-02T01:32:10;94484.34;;;5.94;49.05
36932;BME280;22847;42.654;23.370;2023-02-02T01:34:35;94705.75;;;7.28;49.30
36932;BME280;22847;42.654;23.370;2023-02-02T01:37:05;94692.41;;;7.33;49.01
36932;BME280;22847;42.654;23.370;2023-02-02T01:39:31;94693.72;;;7.27;48.82
36932;BME280;22847;42.654;23.370;2023-02-02T01:41:56;94598.94;;;6.82;48.62
36932;BME280;22847;42.654;23.370;2023-02-02T01:47:15;94675.59;;;7.27;47.61
36932;BME280;22847;42.654;23.370;2023-02-02T01:49:41;94675.16;;;7.43;47.88
36932;BME280;22847;42.654;23.370;2023-02-02T01:52:07;94683.81;;;7.53;48.52
36932;BME280;22847;42.654;23.370;2023-02-02T01:54:46;94713.28;;;7.31;48.47
36932;BME280;22847;42.654;23.370;2023-02-02T01:59:41;94679.38;;;7.23;48.71
36932;BME280;22847;42.654;23.370;2023-02-02T02:02:09;94502.31;;;5.95;48.82
36932;BME280;22847;42.654;23.370;2023-02-02T02:04:35;94720.41;;;7.07;49.66
36932;BME280;22847;42.654;23.370;2023-02-02T02:07:02;94435.94;;;5.51;50.15
36932;BME280;22847;42.654;23.370;2023-02-02T02:09:28;94684.66;;;6.90;50.44
36932;BME280;22847;42.654;23.370;2023-02-02T02:11:54;94686.94;;;6.72;51.13
36932;BME280;22847;42.654;23.370;2023-02-02T02:14:20;94638.59;;;6.61;50.55
36932;BME280;22847;42.654;23.370;2023-02-02T02:17:29;94674.66;;;6.85;50.66
36932;BME280;22847;42.654;23.370;2023-02-02T02:34:51;94689.63;;;6.82;50.15
36932;BME280;22847;42.654;23.370;2023-02-02T02:37:39;94688.22;;;6.89;50.11
36932;BME280;22847;42.654;23.370;2023-02-02T02:40:33;94691.03;;;6.86;50.50
36932;BME280;22847;42.654;23.370;2023-02-02T02:43:04;94680.91;;;6.83;50.35
36932;BME280;22847;42.654;23.370;2023-02-02T02:45:32;94655.78;;;6.40;50.89
36932;BME280;22847;42.654;23.370;2023-02-02T02:47:58;94649.00;;;6.28;51.43
36932;BME280;22847;42.654;23.370;2023-02-02T02:50:24;94698.38;;;6.58;51.20
36932;BME280;22847;42.654;23.370;2023-02-02T02:52:57;94689.31;;;6.64;51.09
36932;BME280;22847;42.654;23.370;2023-02-02T02:55:26;94460.19;;;5.17;50.37
36932;BME280;22847;42.654;23.370;2023-02-02T02:58:11;94468.84;;;5.27;49.76
36932;BME280;22847;42.654;23.370;2023-02-02T03:00:46;94647.59;;;6.24;50.57
36932;BME280;22847;42.654;23.370;2023-02-02T03:03:18;94690.75;;;6.57;51.07
36932;BME280;22847;42.654;23.370;2023-02-02T03:08:38;94687.44;;;6.55;51.12
36932;BME280;22847;42.654;23.370;2023-02-02T03:11:07;94641.44;;;6.36;50.67
36932;BME280;22847;42.654;23.370;2023-02-02T03:13:34;94667.19;;;6.49;50.54
36932;BME280;22847;42.654;23.370;2023-02-02T03:15:59;94689.78;;;6.69;50.76
36932;BME280;22847;42.654;23.370;2023-02-02T03:18:29;94688.13;;;6.68;50.42
36932;BME280;22847;42.654;23.370;2023-02-02T03:20:55;94645.16;;;6.54;50.42
36932;BME280;22847;42.654;23.370;2023-02-02T03:23:21;94640.94;;;6.53;50.25
36932;BME280;22847;42.654;23.370;2023-02-02T03:25:47;94626.00;;;6.46;49.95
36932;BME280;22847;42.654;23.370;2023-02-02T03:28:13;94638.53;;;6.72;49.79
36932;BME280;22847;42.654;23.370;2023-02-02T03:30:40;94691.06;;;6.75;49.91
36932;BME280;22847;42.654;23.370;2023-02-02T03:33:08;94630.13;;;6.80;49.34
36932;BME280;22847;42.654;23.370;2023-02-02T03:35:34;94682.13;;;6.79;50.11
36932;BME280;22847;42.654;23.370;2023-02-02T03:37:59;94683.72;;;6.91;49.68
36932;BME280;22847;42.654;23.370;2023-02-02T03:40:26;94465.56;;;5.47;49.77
36932;BME280;22847;42.654;23.370;2023-02-02T03:42:51;94679.25;;;6.82;49.95
36932;BME280;22847;42.654;23.370;2023-02-02T03:45:16;94682.69;;;6.82;51.29
36932;BME280;22847;42.654;23.370;2023-02-02T03:47:42;94531.84;;;5.70;51.42
36932;BME280;22847;42.654;23.370;2023-02-02T03:50:08;94714.75;;;6.59;51.31
36932;BME280;22847;42.654;23.370;2023-02-02T03:52:33;94514.22;;;5.42;51.52
36932;BME280;22847;42.654;23.370;2023-02-02T03:54:59;94726.75;;;6.49;51.80
36932;BME280;22847;42.654;23.370;2023-02-02T03:57:24;94679.06;;;6.62;52.59
36932;BME280;22847;42.654;23.370;2023-02-02T03:59:50;94658.16;;;6.32;52.10
36932;BME280;22847;42.654;23.370;2023-02-02T04:02:15;94461.00;;;5.17;52.74
36932;BME280;22847;42.654;23.370;2023-02-02T04:04:40;94680.88;;;6.51;53.91
36932;BME280;22847;42.654;23.370;2023-02-02T04:07:06;94671.13;;;6.10;54.66
36932;BME280;22847;42.654;23.370;2023-02-02T04:09:31;94693.75;;;5.73;55.29
36932;BME280;22847;42.654;23.370;2023-02-02T04:11:57;94464.47;;;4.37;55.43
36932;BME280;22847;42.654;23.370;2023-02-02T04:14:22;94730.81;;;5.84;55.89
36932;BME280;22847;42.654;23.370;2023-02-02T04:16:47;94697.00;;;5.64;56.02
36932;BME280;22847;42.654;23.370;2023-02-02T04:19:13;94487.38;;;4.41;55.52
36932;BME280;22847;42.654;23.370;2023-02-02T04:21:39;94712.31;;;5.67;55.79
36932;BME280;22847;42.654;23.370;2023-02-02T04:24:06;94662.00;;;5.71;54.87
36932;BME280;22847;42.654;23.370;2023-02-02T04:26:31;94690.16;;;5.87;54.86
36932;BME280;22847;42.654;23.370;2023-02-02T04:28:57;94705.22;;;6.04;54.66
36932;BME280;22847;42.654;23.370;2023-02-02T04:31:22;94467.50;;;4.66;54.37
36932;BME280;22847;42.654;23.370;2023-02-02T04:33:47;94711.44;;;5.90;54.10
36932;BME280;22847;42.654;23.370;2023-02-02T04:36:13;94733.84;;;6.24;53.55
36932;BME280;22847;42.654;23.370;2023-02-02T04:38:39;94705.34;;;6.02;53.62
36932;BME280;22847;42.654;23.370;2023-02-02T04:41:06;94711.09;;;6.17;52.86
36932;BME280;22847;42.654;23.370;2023-02-02T04:43:35;94700.31;;;6.34;52.98
36932;BME280;22847;42.654;23.370;2023-02-02T04:46:02;94709.25;;;6.30;52.97
36932;BME280;22847;42.654;23.370;2023-02-02T04:48:27;94760.22;;;6.30;53.01
36932;BME280;22847;42.654;23.370;2023-02-02T04:51:04;94708.78;;;6.25;53.11
36932;BME280;22847;42.654;23.370;2023-02-02T04:53:30;94701.22;;;5.89;53.32
36932;BME280;22847;42.654;23.370;2023-02-02T04:55:57;94703.13;;;6.20;53.00
36932;BME280;22847;42.654;23.370;2023-02-02T04:58:22;94683.38;;;6.08;52.92
36932;BME280;22847;42.654;23.370;2023-02-02T05:00:48;94718.66;;;6.20;53.24
36932;BME280;22847;42.654;23.370;2023-02-02T05:03:13;94492.41;;;4.78;53.12
36932;BME280;22847;42.654;23.370;2023-02-02T05:05:39;94672.88;;;5.87;53.08
36932;BME280;22847;42.654;23.370;2023-02-02T05:08:04;94489.00;;;4.66;52.81
36932;BME280;22847;42.654;23.370;2023-02-02T05:10:32;94705.22;;;5.93;53.18
36932;BME280;22847;42.654;23.370;2023-02-02T05:12:58;94657.66;;;5.71;53.08
36932;BME280;22847;42.654;23.370;2023-02-02T05:15:23;94787.25;;;6.14;52.98
36932;BME280;22847;42.654;23.370;2023-02-02T05:17:49;94738.63;;;5.96;53.11
36932;BME280;22847;42.654;23.370;2023-02-02T05:20:14;94684.13;;;5.75;53.26
36932;BME280;22847;42.654;23.370;2023-02-02T05:22:40;94496.97;;;4.63;52.61
36932;BME280;22847;42.654;23.370;2023-02-02T05:25:07;94677.53;;;5.71;52.97
36932;BME280;22847;42.654;23.370;2023-02-02T05:27:33;94709.75;;;5.67;53.80
36932;BME280;22847;42.654;23.370;2023-02-02T05:29:58;94733.63;;;5.81;53.33
36932;BME280;22847;42.654;23.370;2023-02-02T05:32:24;94712.53;;;5.18;53.88
36932;BME280;22847;42.654;23.370;2023-02-02T05:34:49;94682.84;;;5.00;54.46
36932;BME280;22847;42.654;23.370;2023-02-02T05:37:15;94700.41;;;5.18;54.84
36932;BME280;22847;42.654;23.370;2023-02-02T05:39:41;94525.63;;;4.13;54.38
36932;BME280;22847;42.654;23.370;2023-02-02T05:42:06;94711.47;;;4.60;56.67
36932;BME280;22847;42.654;23.370;2023-02-02T05:44:32;94726.84;;;4.25;58.38
36932;BME280;22847;42.654;23.370;2023-02-02T05:46:57;94508.53;;;3.13;58.19
36932;BME280;22847;42.654;23.370;2023-02-02T05:49:23;94700.78;;;4.54;57.30
36932;BME280;22847;42.654;23.370;2023-02-02T05:51:51;94684.72;;;4.25;57.45
36932;BME280;22847;42.654;23.370;2023-02-02T05:54:18;94731.41;;;4.71;57.95
36932;BME280;22847;42.654;23.370;2023-02-02T05:56:49;94722.69;;;4.48;59.10
36932;BME280;22847;42.654;23.370;2023-02-02T05:59:16;94701.47;;;4.07;60.18
36932;BME280;22847;42.654;23.370;2023-02-02T06:01:42;94730.97;;;4.40;60.25
36932;BME280;22847;42.654;23.370;2023-02-02T06:04:08;94696.97;;;3.85;60.93
36932;BME280;22847;42.654;23.370;2023-02-02T06:06:33;94687.44;;;3.98;60.63
36932;BME280;22847;42.654;23.370;2023-02-02T06:09:00;94753.50;;;4.00;61.31
36932;BME280;22847;42.654;23.370;2023-02-02T06:11:25;94504.94;;;2.65;61.25
36932;BME280;22847;42.654;23.370;2023-02-02T06:13:51;94742.00;;;3.54;63.05
36932;BME280;22847;42.654;23.370;2023-02-02T06:16:16;94744.31;;;4.22;61.36
36932;BME280;22847;42.654;23.370;2023-02-02T06:18:41;94770.09;;;4.83;59.71
36932;BME280;22847;42.654;23.370;2023-02-02T06:21:07;94739.75;;;5.80;57.13
36932;BME280;22847;42.654;23.370;2023-02-02T06:23:33;94661.09;;;6.93;52.56
36932;BME280;22847;42.654;23.370;2023-02-02T06:25:59;94769.00;;;8.42;48.73
36932;BME280;22847;42.654;23.370;2023-02-02T06:28:24;94694.28;;;7.62;48.86
36932;BME280;22847;42.654;23.370;2023-02-02T06:30:50;94766.78;;;7.96;48.92
36932;BME280;22847;42.654;23.370;2023-02-02T06:33:15;94777.59;;;7.05;51.05
36932;BME280;22847;42.654;23.370;2023-02-02T06:35:41;94548.34;;;4.08;55.54
36932;BME280;22847;42.654;23.370;2023-02-02T06:38:06;94622.63;;;4.15;57.33
36932;BME280;22847;42.654;23.370;2023-02-02T06:40:31;94551.38;;;4.25;56.18
36932;BME280;22847;42.654;23.370;2023-02-02T06:42:58;94783.25;;;4.80;58.40
36932;BME280;22847;42.654;23.370;2023-02-02T06:45:24;94799.59;;;4.68;59.14
36932;BME280;22847;42.654;23.370;2023-02-02T06:47:51;94621.22;;;3.98;58.21
36932;BME280;22847;42.654;23.370;2023-02-02T06:50:16;94837.72;;;5.37;57.31
36932;BME280;22847;42.654;23.370;2023-02-02T06:52:49;94613.34;;;4.13;58.04
36932;BME280;22847;42.654;23.370;2023-02-02T06:55:14;94804.44;;;4.60;58.95
36932;BME280;22847;42.654;23.370;2023-02-02T06:57:40;94780.72;;;4.91;58.77
36932;BME280;22847;42.654;23.370;2023-02-02T07:00:06;94744.50;;;4.80;58.32
36932;BME280;22847;42.654;23.370;2023-02-02T07:02:31;94786.88;;;5.02;58.64
36932;BME280;22847;42.654;23.370;2023-02-02T07:04:57;94764.38;;;4.67;58.48
36932;BME280;22847;42.654;23.370;2023-02-02T07:07:22;94849.75;;;4.89;58.82
36932;BME280;22847;42.654;23.370;2023-02-02T07:09:47;94715.44;;;3.91;59.25
36932;BME280;22847;42.654;23.370;2023-02-02T07:12:13;94797.56;;;4.35;59.44
36932;BME280;22847;42.654;23.370;2023-02-02T07:14:38;94790.22;;;4.55;59.30
36932;BME280;22847;42.654;23.370;2023-02-02T07:17:04;94766.91;;;4.31;59.95
36932;BME280;22847;42.654;23.370;2023-02-02T07:19:29;94796.50;;;4.50;59.77
36932;BME280;22847;42.654;23.370;2023-02-02T07:21:54;94814.19;;;4.31;60.18
36932;BME280;22847;42.654;23.370;2023-02-02T07:24:20;94804.16;;;4.52;59.79
36932;BME280;22847;42.654;23.370;2023-02-02T07:26:45;94847.84;;;4.17;61.76
36932;BME280;22847;42.654;23.370;2023-02-02T07:29:13;94602.84;;;3.29;61.17
36932;BME280;22847;42.654;23.370;2023-02-02T07:31:39;94837.06;;;4.74;60.39
36932;BME280;22847;42.654;23.370;2023-02-02T07:34:05;94759.06;;;4.69;59.50
36932;BME280;22847;42.654;23.370;2023-02-02T07:36:30;94837.31;;;4.45;60.87
36932;BME280;22847;42.654;23.370;2023-02-02T07:38:56;94750.91;;;4.13;60.93
36932;BME280;22847;42.654;23.370;2023-02-02T07:41:22;94823.94;;;4.89;59.69
36932;BME280;22847;42.654;23.370;2023-02-02T07:43:48;94824.56;;;5.40;58.38
36932;BME280;22847;42.654;23.370;2023-02-02T07:46:15;94755.41;;;5.44;57.96
36932;BME280;22847;42.654;23.370;2023-02-02T07:48:41;94605.69;;;4.71;57.13
36932;BME280;22847;42.654;23.370;2023-02-02T07:51:08;94804.97;;;5.97;56.74
36932;BME280;22847;42.654;23.370;2023-02-02T07:53:35;94793.31;;;5.91;56.38
36932;BME280;22847;42.654;23.370;2023-02-02T07:56:12;94594.13;;;5.45;55.10
36932;BME280;22847;42.654;23.370;2023-02-02T07:58:38;94670.59;;;6.49;53.57
36932;BME280;22847;42.654;23.370;2023-02-02T08:01:05;94714.16;;;7.73;51.91
36932;BME280;22847;42.654;23.370;2023-02-02T08:03:31;94678.06;;;8.51;48.71
36932;BME280;22847;42.654;23.370;2023-02-02T08:05:57;94741.34;;;9.98;47.16
36932;BME280;22847;42.654;23.370;2023-02-02T08:08:23;94793.56;;;10.91;45.27
36932;BME280;22847;42.654;23.370;2023-02-02T08:10:49;94741.56;;;11.52;43.27
36932;BME280;22847;42.654;23.370;2023-02-02T08:13:15;94749.38;;;12.23;41.20
36932;BME280;22847;42.654;23.370;2023-02-02T08:15:40;94739.09;;;11.05;41.49
36932;BME280;22847;42.654;23.370;2023-02-02T08:18:06;94785.50;;;9.70;45.02
36932;BME280;22847;42.654;23.370;2023-02-02T08:20:31;94745.25;;;8.96;47.14
36932;BME280;22847;42.654;23.370;2023-02-02T08:22:56;94627.09;;;7.07;50.23
36932;BME280;22847;42.654;23.370;2023-02-02T08:25:23;94755.81;;;7.92;50.80
36932;BME280;22847;42.654;23.370;2023-02-02T08:27:52;94526.56;;;6.37;50.62
36932;BME280;22847;42.654;23.370;2023-02-02T08:30:18;94733.75;;;7.45;51.77
36932;BME280;22847;42.654;23.370;2023-02-02T08:32:43;94740.41;;;7.80;51.46
36932;BME280;22847;42.654;23.370;2023-02-02T08:35:09;94706.53;;;8.23;50.11
36932;BME280;22847;42.654;23.370;2023-02-02T08:37:34;94530.50;;;8.36;47.48
36932;BME280;22847;42.654;23.370;2023-02-02T08:40:00;94572.59;;;9.55;45.99
36932;BME280;22847;42.654;23.370;2023-02-02T08:42:25;94514.59;;;9.72;43.28
36932;BME280;22847;42.654;23.370;2023-02-02T08:44:50;94697.84;;;10.91;42.46
36932;BME280;22847;42.654;23.370;2023-02-02T08:47:16;94732.97;;;10.97;42.51
36932;BME280;22847;42.654;23.370;2023-02-02T08:49:41;94724.63;;;10.93;42.39
36932;BME280;22847;42.654;23.370;2023-02-02T08:52:07;94675.28;;;10.08;43.55
36932;BME280;22847;42.654;23.370;2023-02-02T08:54:33;94689.94;;;10.19;43.88
36932;BME280;22847;42.654;23.370;2023-02-02T08:56:58;94744.13;;;10.62;43.67
36932;BME280;22847;42.654;23.370;2023-02-02T08:59:24;94720.75;;;10.33;43.39
36932;BME280;22847;42.654;23.370;2023-02-02T09:01:49;94727.13;;;9.44;45.18
36932;BME280;22847;42.654;23.370;2023-02-02T09:04:15;94727.41;;;9.31;46.11
36932;BME280;22847;42.654;23.370;2023-02-02T09:06:41;94557.63;;;7.73;47.17
36932;BME280;22847;42.654;23.370;2023-02-02T09:09:09;94749.84;;;8.83;47.56
36932;BME280;22847;42.654;23.370;2023-02-02T09:11:35;94695.66;;;8.38;48.03
36932;BME280;22847;42.654;23.370;2023-02-02T09:14:01;94699.56;;;8.02;49.33
36932;BME280;22847;42.654;23.370;2023-02-02T09:16:28;94732.88;;;8.18;49.22
36932;BME280;22847;42.654;23.370;2023-02-02T09:18:54;94732.69;;;8.10;49.19
36932;BME280;22847;42.654;23.370;2023-02-02T09:21:20;94467.72;;;6.60;49.55
36932;BME280;22847;42.654;23.370;2023-02-02T09:23:47;94740.06;;;8.05;50.18
36932;BME280;22847;42.654;23.370;2023-02-02T09:28:52;94481.75;;;5.94;52.21
36932;BME280;22847;42.654;23.370;2023-02-02T09:31:18;94738.81;;;7.15;52.74
36932;BME280;22847;42.654;23.370;2023-02-02T09:33:43;94704.72;;;7.51;51.98
36932;BME280;22847;42.654;23.370;2023-02-02T09:36:12;94708.72;;;7.97;50.67
36932;BME280;22847;42.654;23.370;2023-02-02T09:38:39;94694.72;;;7.15;52.08
36932;BME280;22847;42.654;23.370;2023-02-02T09:49:18;94697.44;;;8.68;48.97
36932;BME280;22847;42.654;23.370;2023-02-02T09:51:52;94685.44;;;8.96;48.14
36932;BME280;22847;42.654;23.370;2023-02-02T09:54:35;94683.53;;;8.98;48.36
36932;BME280;22847;42.654;23.370;2023-02-02T09:57:04;94683.34;;;8.71;48.25
36932;BME280;22847;42.654;23.370;2023-02-02T09:59:38;94637.88;;;8.25;48.26
36932;BME280;22847;42.654;23.370;2023-02-02T10:02:20;94607.75;;;8.03;47.59
36932;BME280;22847;42.654;23.370;2023-02-02T10:04:51;94651.94;;;8.43;47.37
36932;BME280;22847;42.654;23.370;2023-02-02T10:07:28;94554.16;;;8.42;45.78
36932;BME280;22847;42.654;23.370;2023-02-02T10:09:58;94515.75;;;8.36;45.65
36932;BME280;22847;42.654;23.370;2023-02-02T10:12:53;94653.31;;;9.16;46.39
36932;BME280;22847;42.654;23.370;2023-02-02T10:15:30;94657.56;;;9.36;45.95
36932;BME280;22847;42.654;23.370;2023-02-02T10:21:11;94590.03;;;9.25;46.09
36932;BME280;22847;42.654;23.370;2023-02-02T10:23:42;94438.84;;;8.24;45.25
36932;BME280;22847;42.654;23.370;2023-02-02T10:26:20;94675.50;;;9.59;44.83
36932;BME280;22847;42.654;23.370;2023-02-02T10:34:45;94628.31;;;10.27;43.04
36932;BME280;22847;42.654;23.370;2023-02-02T10:40:00;94668.63;;;10.88;42.04
36932;BME280;22847;42.654;23.370;2023-02-02T10:45:18;94564.22;;;10.62;39.45
36932;BME280;22847;42.654;23.370;2023-02-02T10:47:44;94605.44;;;10.94;38.98
36932;BME280;22847;42.654;23.370;2023-02-02T10:50:16;94388.34;;;10.03;38.19
36932;BME280;22847;42.654;23.370;2023-02-02T10:52:54;94379.72;;;10.38;37.41
36932;BME280;22847;42.654;23.370;2023-02-02T10:58:17;94565.25;;;11.66;38.25
36932;BME280;22847;42.654;23.370;2023-02-02T11:03:14;94561.19;;;12.31;34.73
36932;BME280;22847;42.654;23.370;2023-02-02T11:05:40;94531.09;;;12.19;34.81
36932;BME280;22847;42.654;23.370;2023-02-02T11:08:36;94461.84;;;12.31;34.67
36932;BME280;22847;42.654;23.370;2023-02-02T11:13:44;94574.59;;;12.78;34.24
36932;BME280;22847;42.654;23.370;2023-02-02T11:18:41;94547.28;;;12.22;33.89
36932;BME280;22847;42.654;23.370;2023-02-02T11:21:26;94469.25;;;11.93;33.80
36932;BME280;22847;42.654;23.370;2023-02-02T11:26:22;94509.75;;;12.47;34.24
36932;BME280;22847;42.654;23.370;2023-02-02T11:28:49;94530.75;;;12.80;34.02
36932;BME280;22847;42.654;23.370;2023-02-02T11:31:32;94319.00;;;11.73;33.59
36932;BME280;22847;42.654;23.370;2023-02-02T11:34:16;94514.59;;;12.92;32.95
36932;BME280;22847;42.654;23.370;2023-02-02T11:37:14;94519.81;;;12.68;33.24
36932;BME280;22847;42.654;23.370;2023-02-02T11:39:41;94534.00;;;12.58;33.57
36932;BME280;22847;42.654;23.370;2023-02-02T11:42:12;94491.28;;;12.33;33.57
36932;BME280;22847;42.654;23.370;2023-02-02T11:44:43;94389.53;;;11.81;33.09
36932;BME280;22847;42.654;23.370;2023-02-02T11:47:18;94487.38;;;12.37;33.20
36932;BME280;22847;42.654;23.370;2023-02-02T11:49:44;94495.72;;;12.40;34.33
36932;BME280;22847;42.654;23.370;2023-02-02T11:52:17;94344.69;;;11.52;34.26
36932;BME280;22847;42.654;23.370;2023-02-02T11:54:50;94295.38;;;11.49;33.83
36932;BME280;22847;42.654;23.370;2023-02-02T11:57:21;94472.03;;;12.74;33.15
36932;BME280;22847;42.654;23.370;2023-02-02T12:00:10;94467.47;;;12.60;33.03
36932;BME280;22847;42.654;23.370;2023-02-02T12:02:36;94513.34;;;12.38;33.07
36932;BME280;22847;42.654;23.370;2023-02-02T12:07:35;94393.03;;;12.06;33.00
36932;BME280;22847;42.654;23.370;2023-02-02T12:10:18;94482.50;;;12.50;33.48
36932;BME280;22847;42.654;23.370;2023-02-02T12:28:54;94273.13;;;10.53;33.76
36932;BME280;22847;42.654;23.370;2023-02-02T12:50:17;94497.06;;;10.82;35.46
36932;BME280;22847;42.654;23.370;2023-02-02T12:52:52;94480.84;;;10.70;36.09
36932;BME280;22847;42.654;23.370;2023-02-02T12:55:43;94445.53;;;10.40;36.44
36932;BME280;22847;42.654;23.370;2023-02-02T12:58:24;94485.63;;;10.57;37.11
36932;BME280;22847;42.654;23.370;2023-02-02T13:03:30;94483.47;;;10.70;37.26
36932;BME280;22847;42.654;23.370;2023-02-02T13:06:34;94481.66;;;10.70;36.92
36932;BME280;22847;42.654;23.370;2023-02-02T13:09:12;94374.56;;;10.11;36.97
36932;BME280;22847;42.654;23.370;2023-02-02T13:11:52;94504.84;;;10.73;39.01
36932;BME280;22847;42.654;23.370;2023-02-02T13:14:21;94276.88;;;9.54;36.99
36932;BME280;22847;42.654;23.370;2023-02-02T13:16:53;94447.41;;;10.65;36.62
36932;BME280;22847;42.654;23.370;2023-02-02T13:19:43;94320.31;;;9.89;36.40
36932;BME280;22847;42.654;23.370;2023-02-02T13:22:16;94485.56;;;11.10;36.76
36932;BME280;22847;42.654;23.370;2023-02-02T13:24:47;94426.81;;;10.80;36.33
36932;BME280;22847;42.654;23.370;2023-02-02T13:27:17;94480.50;;;11.08;36.17
36932;BME280;22847;42.654;23.370;2023-02-02T13:29:56;94441.97;;;11.02;36.02
36932;BME280;22847;42.654;23.370;2023-02-02T13:32:29;94458.50;;;11.11;36.90
36932;BME280;22847;42.654;23.370;2023-02-02T13:35:16;94469.78;;;11.11;36.38
36932;BME280;22847;42.654;23.370;2023-02-02T13:48:43;94301.41;;;9.51;36.18
36932;BME280;22847;42.654;23.370;2023-02-02T14:01:25;94509.34;;;10.36;37.42
36932;BME280;22847;42.654;23.370;2023-02-02T14:03:53;94363.69;;;9.80;37.60
36932;BME280;22847;42.654;23.370;2023-02-02T14:06:21;94459.09;;;10.61;37.40
36932;BME280;22847;42.654;23.370;2023-02-02T14:08:53;94274.78;;;9.57;37.24
36932;BME280;22847;42.654;23.370;2023-02-02T14:13:53;94449.56;;;10.52;43.10
36932;BME280;22847;42.654;23.370;2023-02-02T14:19:14;94474.22;;;10.58;41.26
36932;BME280;22847;42.654;23.370;2023-02-02T14:27:00;94455.28;;;10.20;42.02
36932;BME280;22847;42.654;23.370;2023-02-02T14:34:36;94420.50;;;9.67;42.83
36932;BME280;22847;42.654;23.370;2023-02-02T14:37:28;94471.78;;;9.84;43.03
36932;BME280;22847;42.654;23.370;2023-02-02T14:45:31;94475.59;;;9.16;46.33
36932;BME280;22847;42.654;23.370;2023-02-02T14:55:28;94416.09;;;7.59;60.20
36932;BME280;22847;42.654;23.370;2023-02-02T14:57:55;94653.66;;;8.03;64.09
36932;BME280;22847;42.654;23.370;2023-02-02T15:00:25;94628.63;;;7.92;65.67
36932;BME280;22847;42.654;23.370;2023-02-02T15:02:51;94410.19;;;6.04;67.78
36932;BME280;22847;42.654;23.370;2023-02-02T15:07:52;94663.06;;;7.00;71.01
36932;BME280;22847;42.654;23.370;2023-02-02T15:13:13;94505.25;;;5.91;70.17
36932;BME280;22847;42.654;23.370;2023-02-02T15:15:42;94687.59;;;6.96;69.71
36932;BME280;22847;42.654;23.370;2023-02-02T15:18:16;94717.56;;;6.67;70.45
36932;BME280;22847;42.654;23.370;2023-02-02T15:20:48;94709.94;;;6.54;70.45
36932;BME280;22847;42.654;23.370;2023-02-02T15:23:29;94761.25;;;6.49;71.69
36932;BME280;22847;42.654;23.370;2023-02-02T15:26:06;94718.53;;;6.55;70.65
36932;BME280;22847;42.654;23.370;2023-02-02T15:28:50;94505.34;;;4.89;71.34
36932;BME280;22847;42.654;23.370;2023-02-02T15:31:38;94699.63;;;5.75;72.92
36932;BME280;22847;42.654;23.370;2023-02-02T15:37:04;94742.56;;;5.77;73.29
36932;BME280;22847;42.654;23.370;2023-02-02T15:39:40;94718.53;;;5.53;73.77
36932;BME280;22847;42.654;23.370;2023-02-02T15:44:56;94734.78;;;5.66;74.11
36932;BME280;22847;42.654;23.370;2023-02-02T15:47:34;94525.06;;;4.44;73.80
36932;BME280;22847;42.654;23.370;2023-02-02T15:50:00;94757.97;;;5.44;74.48